sensor_id;sensor_type;location;lat;lon;timestamp;P1;durP1;ratioP1;P2;durP2;ratioP2
353;SDS011;165;53.592;10.044;2023-02-02T00:01:48;21.57;;;8.27;;
353;SDS011;165;53.592;10.044;2023-02-02T00:04:36;16.30;;;4.10;;
353;SDS011;165;53.592;10.044;2023-02-02T00:07:01;27.77;;;6.97;;
353;SDS011;165;53.592;10.044;2023-02-02T00:09:28;16.37;;;4.83;;
353;SDS011;165;53.592;10.044;2023-02-02T00:11:55;18.93;;;5.30;;
353;SDS011;165;53.592;10.044;2023-02-02T00:14:21;16.57;;;5.70;;
353;SDS011;165;53.592;10.044;2023-02-02T00:16:48;14.63;;;4.50;;
353;SDS011;165;53.592;10.044;2023-02-02T00:19:15;21.47;;;5.37;;
353;SDS011;165;53.592;10.044;2023-02-02T00:21:46;34.60;;;6.40;;
353;SDS011;165;53.592;10.044;2023-02-02T00:24:12;25.60;;;6.07;;
353;SDS011;165;53.592;10.044;2023-02-02T00:26:40;20.23;;;8.03;;
353;SDS011;165;53.592;10.044;2023-02-02T00:29:07;24.30;;;4.80;;
353;SDS011;165;53.592;10.044;2023-02-02T00:31:37;14.00;;;5.03;;
353;SDS011;165;53.592;10.044;2023-02-02T00:34:03;17.43;;;5.67;;
353;SDS011;165;53.592;10.044;2023-02-02T00:36:28;14.70;;;5.10;;
353;SDS011;165;53.592;10.044;2023-02-02T00:38:53;20.07;;;6.33;;
353;SDS011;165;53.592;10.044;2023-02-02T00:41:19;22.43;;;6.00;;
353;SDS011;165;53.592;10.044;2023-02-02T00:43:44;26.87;;;5.57;;
353;SDS011;165;53.592;10.044;2023-02-02T00:46:12;24.03;;;6.60;;
353;SDS011;165;53.592;10.044;2023-02-02T00:48:41;19.33;;;6.37;;
353;SDS011;165;53.592;10.044;2023-02-02T00:51:06;21.47;;;6.23;;
353;SDS011;165;53.592;10.044;2023-02-02T00:53:32;24.40;;;6.83;;
353;SDS011;165;53.592;10.044;2023-02-02T00:55:57;20.80;;;5.53;;
353;SDS011;165;53.592;10.044;2023-02-02T00:58:23;21.63;;;5.57;;
353;SDS011;165;53.592;10.044;2023-02-02T01:00:48;18.50;;;5.23;;
353;SDS011;165;53.592;10.044;2023-02-02T01:03:14;21.07;;;5.90;;
353;SDS011;165;53.592;10.044;2023-02-02T01:05:39;17.80;;;4.83;;
353;SDS011;165;53.592;10.044;2023-02-02T01:08:05;25.33;;;6.30;;
353;SDS011;165;53.592;10.044;2023-02-02T01:10:31;20.17;;;6.00;;
353;SDS011;165;53.592;10.044;2023-02-02T01:12:56;15.87;;;4.37;;
353;SDS011;165;53.592;10.044;2023-02-02T01:15:21;15.07;;;4.50;;
353;SDS011;165;53.592;10.044;2023-02-02T01:17:47;15.07;;;4.80;;
353;SDS011;165;53.592;10.044;2023-02-02T01:20:16;17.43;;;6.07;;
353;SDS011;165;53.592;10.044;2023-02-02T01:22:43;14.23;;;4.30;;
353;SDS011;165;53.592;10.044;2023-02-02T01:25:09;14.47;;;5.47;;
353;SDS011;165;53.592;10.044;2023-02-02T01:27:35;29.47;;;5.73;;
353;SDS011;165;53.592;10.044;2023-02-02T01:30:00;14.00;;;4.60;;
353;SDS011;165;53.592;10.044;2023-02-02T01:32:26;17.83;;;4.63;;
353;SDS011;165;53.592;10.044;2023-02-02T01:34:51;18.60;;;4.47;;
353;SDS011;165;53.592;10.044;2023-02-02T01:37:17;26.50;;;4.70;;
353;SDS011;165;53.592;10.044;2023-02-02T01:39:42;13.90;;;6.60;;
353;SDS011;165;53.592;10.044;2023-02-02T01:42:11;14.27;;;3.63;;
353;SDS011;165;53.592;10.044;2023-02-02T01:47:32;15.43;;;4.13;;
353;SDS011;165;53.592;10.044;2023-02-02T01:50:02;11.67;;;4.27;;
353;SDS011;165;53.592;10.044;2023-02-02T01:52:29;18.30;;;5.93;;
353;SDS011;165;53.592;10.044;2023-02-02T01:54:57;14.87;;;5.00;;
353;SDS011;165;53.592;10.044;2023-02-02T01:57:34;17.83;;;4.50;;
353;SDS011;165;53.592;10.044;2023-02-02T02:00:06;17.17;;;3.83;;
353;SDS011;165;53.592;10.044;2023-02-02T02:02:34;11.10;;;4.23;;
353;SDS011;165;53.592;10.044;2023-02-02T02:05:01;13.97;;;3.70;;
353;SDS011;165;53.592;10.044;2023-02-02T02:07:28;19.73;;;4.20;;
353;SDS011;165;53.592;10.044;2023-02-02T02:09:54;14.50;;;3.40;;
353;SDS011;165;53.592;10.044;2023-02-02T02:12:19;11.00;;;3.40;;
353;SDS011;165;53.592;10.044;2023-02-02T02:14:46;10.10;;;3.37;;
353;SDS011;165;53.592;10.044;2023-02-02T02:23:34;8.77;;;2.80;;
353;SDS011;165;53.592;10.044;2023-02-02T02:29:53;7.53;;;2.93;;
353;SDS011;165;53.592;10.044;2023-02-02T02:39:48;13.03;;;3.20;;
353;SDS011;165;53.592;10.044;2023-02-02T02:42:35;15.23;;;4.30;;
353;SDS011;165;53.592;10.044;2023-02-02T02:45:05;18.57;;;4.60;;
353;SDS011;165;53.592;10.044;2023-02-02T02:47:32;12.87;;;3.03;;
353;SDS011;165;53.592;10.044;2023-02-02T02:49:59;16.73;;;3.53;;
353;SDS011;165;53.592;10.044;2023-02-02T02:52:24;14.93;;;3.30;;
353;SDS011;165;53.592;10.044;2023-02-02T02:54:51;14.30;;;4.40;;
353;SDS011;165;53.592;10.044;2023-02-02T03:08:11;21.47;;;5.67;;
353;SDS011;165;53.592;10.044;2023-02-02T03:10:59;15.83;;;3.60;;
353;SDS011;165;53.592;10.044;2023-02-02T03:13:25;13.57;;;3.93;;
353;SDS011;165;53.592;10.044;2023-02-02T03:15:51;24.10;;;3.90;;
353;SDS011;165;53.592;10.044;2023-02-02T03:18:18;19.57;;;3.70;;
353;SDS011;165;53.592;10.044;2023-02-02T03:20:46;16.03;;;4.90;;
353;SDS011;165;53.592;10.044;2023-02-02T03:23:12;10.97;;;3.80;;
353;SDS011;165;53.592;10.044;2023-02-02T03:25:38;15.60;;;4.40;;
353;SDS011;165;53.592;10.044;2023-02-02T03:28:04;15.57;;;3.67;;
353;SDS011;165;53.592;10.044;2023-02-02T03:30:30;13.20;;;3.30;;
353;SDS011;165;53.592;10.044;2023-02-02T03:32:56;13.47;;;3.50;;
353;SDS011;165;53.592;10.044;2023-02-02T03:35:22;15.90;;;3.50;;
353;SDS011;165;53.592;10.044;2023-02-02T03:37:47;9.70;;;3.60;;
353;SDS011;165;53.592;10.044;2023-02-02T03:40:13;9.47;;;2.93;;
353;SDS011;165;53.592;10.044;2023-02-02T03:42:39;15.40;;;4.53;;
353;SDS011;165;53.592;10.044;2023-02-02T03:45:05;13.40;;;3.30;;
353;SDS011;165;53.592;10.044;2023-02-02T03:47:31;16.77;;;3.77;;
353;SDS011;165;53.592;10.044;2023-02-02T03:49:57;22.17;;;3.60;;
353;SDS011;165;53.592;10.044;2023-02-02T03:52:22;14.43;;;6.30;;
353;SDS011;165;53.592;10.044;2023-02-02T03:54:48;9.50;;;3.60;;
353;SDS011;165;53.592;10.044;2023-02-02T03:57:14;12.20;;;3.50;;
353;SDS011;165;53.592;10.044;2023-02-02T03:59:40;9.73;;;3.20;;
353;SDS011;165;53.592;10.044;2023-02-02T04:02:05;15.57;;;4.20;;
353;SDS011;165;53.592;10.044;2023-02-02T04:04:30;16.53;;;2.77;;
353;SDS011;165;53.592;10.044;2023-02-02T04:06:56;16.87;;;3.90;;
353;SDS011;165;53.592;10.044;2023-02-02T04:09:21;11.00;;;2.50;;
353;SDS011;165;53.592;10.044;2023-02-02T04:11:47;8.30;;;2.40;;
353;SDS011;165;53.592;10.044;2023-02-02T04:14:12;10.93;;;2.70;;
353;SDS011;165;53.592;10.044;2023-02-02T04:16:38;15.67;;;3.80;;
353;SDS011;165;53.592;10.044;2023-02-02T04:19:03;12.17;;;2.03;;
353;SDS011;165;53.592;10.044;2023-02-02T04:21:29;6.13;;;2.30;;
353;SDS011;165;53.592;10.044;2023-02-02T04:23:55;16.10;;;2.70;;
353;SDS011;165;53.592;10.044;2023-02-02T04:26:20;8.60;;;2.50;;
353;SDS011;165;53.592;10.044;2023-02-02T04:28:46;9.20;;;2.60;;
353;SDS011;165;53.592;10.044;2023-02-02T04:31:11;10.13;;;3.30;;
353;SDS011;165;53.592;10.044;2023-02-02T04:33:37;9.03;;;2.43;;
353;SDS011;165;53.592;10.044;2023-02-02T04:36:03;10.13;;;3.30;;
353;SDS011;165;53.592;10.044;2023-02-02T04:38:28;9.23;;;2.90;;
353;SDS011;165;53.592;10.044;2023-02-02T04:40:54;6.33;;;1.47;;
353;SDS011;165;53.592;10.044;2023-02-02T04:43:19;7.93;;;2.80;;
353;SDS011;165;53.592;10.044;2023-02-02T04:45:45;8.20;;;1.90;;
353;SDS011;165;53.592;10.044;2023-02-02T04:48:10;6.30;;;2.13;;
353;SDS011;165;53.592;10.044;2023-02-02T04:50:35;4.70;;;1.97;;
353;SDS011;165;53.592;10.044;2023-02-02T04:53:02;9.03;;;3.20;;
353;SDS011;165;53.592;10.044;2023-02-02T04:55:27;10.30;;;3.10;;
353;SDS011;165;53.592;10.044;2023-02-02T04:57:53;9.50;;;2.77;;
353;SDS011;165;53.592;10.044;2023-02-02T05:00:19;11.87;;;2.97;;
353;SDS011;165;53.592;10.044;2023-02-02T05:02:44;9.77;;;3.70;;
353;SDS011;165;53.592;10.044;2023-02-02T05:05:10;14.03;;;3.73;;
353;SDS011;165;53.592;10.044;2023-02-02T05:07:37;12.60;;;3.50;;
353;SDS011;165;53.592;10.044;2023-02-02T05:10:03;12.30;;;2.83;;
353;SDS011;165;53.592;10.044;2023-02-02T05:12:29;18.93;;;3.90;;
353;SDS011;165;53.592;10.044;2023-02-02T05:14:54;17.13;;;4.07;;
353;SDS011;165;53.592;10.044;2023-02-02T05:17:20;16.67;;;3.90;;
353;SDS011;165;53.592;10.044;2023-02-02T05:19:45;12.43;;;3.50;;
353;SDS011;165;53.592;10.044;2023-02-02T05:22:11;25.03;;;3.30;;
353;SDS011;165;53.592;10.044;2023-02-02T05:24:36;11.23;;;2.70;;
353;SDS011;165;53.592;10.044;2023-02-02T05:27:01;11.10;;;3.30;;
353;SDS011;165;53.592;10.044;2023-02-02T05:29:27;10.43;;;2.87;;
353;SDS011;165;53.592;10.044;2023-02-02T05:31:56;10.20;;;2.93;;
353;SDS011;165;53.592;10.044;2023-02-02T05:34:22;12.67;;;4.50;;
353;SDS011;165;53.592;10.044;2023-02-02T05:36:48;13.20;;;4.63;;
353;SDS011;165;53.592;10.044;2023-02-02T05:39:14;7.17;;;3.00;;
353;SDS011;165;53.592;10.044;2023-02-02T05:41:39;6.73;;;2.30;;
353;SDS011;165;53.592;10.044;2023-02-02T05:44:05;9.10;;;2.73;;
353;SDS011;165;53.592;10.044;2023-02-02T05:46:30;12.40;;;3.27;;
353;SDS011;165;53.592;10.044;2023-02-02T05:48:56;15.03;;;3.93;;
353;SDS011;165;53.592;10.044;2023-02-02T05:51:23;16.70;;;5.67;;
353;SDS011;165;53.592;10.044;2023-02-02T05:53:52;22.80;;;5.63;;
353;SDS011;165;53.592;10.044;2023-02-02T05:56:18;14.80;;;4.23;;
353;SDS011;165;53.592;10.044;2023-02-02T05:58:44;13.57;;;3.50;;
353;SDS011;165;53.592;10.044;2023-02-02T06:01:09;14.63;;;3.67;;
353;SDS011;165;53.592;10.044;2023-02-02T06:03:35;26.87;;;4.63;;
353;SDS011;165;53.592;10.044;2023-02-02T06:06:00;20.70;;;4.97;;
353;SDS011;165;53.592;10.044;2023-02-02T06:08:26;14.63;;;4.10;;
353;SDS011;165;53.592;10.044;2023-02-02T06:10:51;20.40;;;5.10;;
353;SDS011;165;53.592;10.044;2023-02-02T06:13:17;22.03;;;3.97;;
353;SDS011;165;53.592;10.044;2023-02-02T06:15:42;21.83;;;6.57;;
353;SDS011;165;53.592;10.044;2023-02-02T06:18:08;13.70;;;4.10;;
353;SDS011;165;53.592;10.044;2023-02-02T06:20:33;17.90;;;5.30;;
353;SDS011;165;53.592;10.044;2023-02-02T06:22:59;21.23;;;4.80;;
353;SDS011;165;53.592;10.044;2023-02-02T06:25:25;19.93;;;5.70;;
353;SDS011;165;53.592;10.044;2023-02-02T06:27:54;23.93;;;5.17;;
353;SDS011;165;53.592;10.044;2023-02-02T06:30:22;16.30;;;3.53;;
353;SDS011;165;53.592;10.044;2023-02-02T06:32:47;19.47;;;5.00;;
353;SDS011;165;53.592;10.044;2023-02-02T06:35:13;19.67;;;4.87;;
353;SDS011;165;53.592;10.044;2023-02-02T06:37:38;29.07;;;5.97;;
353;SDS011;165;53.592;10.044;2023-02-02T06:40:05;14.40;;;4.33;;
353;SDS011;165;53.592;10.044;2023-02-02T06:42:31;18.70;;;5.50;;
353;SDS011;165;53.592;10.044;2023-02-02T06:44:56;26.07;;;5.70;;
353;SDS011;165;53.592;10.044;2023-02-02T06:47:22;18.70;;;4.20;;
353;SDS011;165;53.592;10.044;2023-02-02T06:49:47;20.70;;;5.30;;
353;SDS011;165;53.592;10.044;2023-02-02T06:52:13;23.23;;;6.00;;
353;SDS011;165;53.592;10.044;2023-02-02T06:54:38;25.33;;;5.43;;
353;SDS011;165;53.592;10.044;2023-02-02T06:57:04;20.63;;;4.60;;
353;SDS011;165;53.592;10.044;2023-02-02T06:59:29;16.70;;;4.33;;
353;SDS011;165;53.592;10.044;2023-02-02T07:01:55;23.23;;;5.10;;
353;SDS011;165;53.592;10.044;2023-02-02T07:04:20;14.40;;;6.17;;
353;SDS011;165;53.592;10.044;2023-02-02T07:06:46;20.33;;;4.00;;
353;SDS011;165;53.592;10.044;2023-02-02T07:09:11;19.37;;;4.57;;
353;SDS011;165;53.592;10.044;2023-02-02T07:11:37;18.80;;;5.20;;
353;SDS011;165;53.592;10.044;2023-02-02T07:14:02;20.37;;;5.30;;
353;SDS011;165;53.592;10.044;2023-02-02T07:16:28;15.70;;;3.80;;
353;SDS011;165;53.592;10.044;2023-02-02T07:18:54;17.23;;;3.40;;
353;SDS011;165;53.592;10.044;2023-02-02T07:21:21;16.87;;;3.37;;
353;SDS011;165;53.592;10.044;2023-02-02T07:23:48;9.73;;;3.37;;
353;SDS011;165;53.592;10.044;2023-02-02T07:26:14;13.10;;;4.03;;
353;SDS011;165;53.592;10.044;2023-02-02T07:28:41;11.97;;;3.57;;
353;SDS011;165;53.592;10.044;2023-02-02T07:33:46;18.70;;;4.50;;
353;SDS011;165;53.592;10.044;2023-02-02T07:36:13;11.70;;;2.87;;
353;SDS011;165;53.592;10.044;2023-02-02T07:38:40;13.73;;;3.17;;
353;SDS011;165;53.592;10.044;2023-02-02T07:41:06;13.63;;;3.73;;
353;SDS011;165;53.592;10.044;2023-02-02T07:43:31;12.27;;;3.13;;
353;SDS011;165;53.592;10.044;2023-02-02T07:46:00;19.57;;;6.43;;
353;SDS011;165;53.592;10.044;2023-02-02T07:48:29;14.80;;;3.47;;
353;SDS011;165;53.592;10.044;2023-02-02T07:51:02;15.07;;;4.40;;
353;SDS011;165;53.592;10.044;2023-02-02T07:53:30;20.60;;;5.60;;
353;SDS011;165;53.592;10.044;2023-02-02T07:56:11;24.80;;;5.10;;
353;SDS011;165;53.592;10.044;2023-02-02T07:58:39;23.80;;;4.63;;
353;SDS011;165;53.592;10.044;2023-02-02T08:01:06;19.60;;;4.37;;
353;SDS011;165;53.592;10.044;2023-02-02T08:03:33;20.63;;;4.50;;
353;SDS011;165;53.592;10.044;2023-02-02T08:05:59;26.40;;;4.87;;
353;SDS011;165;53.592;10.044;2023-02-02T08:08:25;20.33;;;4.80;;
353;SDS011;165;53.592;10.044;2023-02-02T08:10:51;7.40;;;3.70;;
353;SDS011;165;53.592;10.044;2023-02-02T08:13:18;33.63;;;7.60;;
353;SDS011;165;53.592;10.044;2023-02-02T08:15:44;19.73;;;3.93;;
353;SDS011;165;53.592;10.044;2023-02-02T08:18:10;23.87;;;5.70;;
353;SDS011;165;53.592;10.044;2023-02-02T08:20:35;18.00;;;5.67;;
353;SDS011;165;53.592;10.044;2023-02-02T08:23:01;22.73;;;4.80;;
353;SDS011;165;53.592;10.044;2023-02-02T08:25:26;13.43;;;4.50;;
353;SDS011;165;53.592;10.044;2023-02-02T08:27:52;13.23;;;4.13;;
353;SDS011;165;53.592;10.044;2023-02-02T08:30:18;15.67;;;4.40;;
353;SDS011;165;53.592;10.044;2023-02-02T08:32:44;18.90;;;7.53;;
353;SDS011;165;53.592;10.044;2023-02-02T08:35:09;18.27;;;5.13;;
353;SDS011;165;53.592;10.044;2023-02-02T08:37:35;15.73;;;4.10;;
353;SDS011;165;53.592;10.044;2023-02-02T08:40:00;18.40;;;3.87;;
353;SDS011;165;53.592;10.044;2023-02-02T08:42:26;15.10;;;3.53;;
353;SDS011;165;53.592;10.044;2023-02-02T08:44:51;12.03;;;3.63;;
353;SDS011;165;53.592;10.044;2023-02-02T08:47:17;13.90;;;3.60;;
353;SDS011;165;53.592;10.044;2023-02-02T08:49:42;17.73;;;3.70;;
353;SDS011;165;53.592;10.044;2023-02-02T08:52:08;11.87;;;4.10;;
353;SDS011;165;53.592;10.044;2023-02-02T08:54:33;12.33;;;4.17;;
353;SDS011;165;53.592;10.044;2023-02-02T08:56:58;14.40;;;3.40;;
353;SDS011;165;53.592;10.044;2023-02-02T08:59:24;15.00;;;3.43;;
353;SDS011;165;53.592;10.044;2023-02-02T09:01:49;17.10;;;3.70;;
353;SDS011;165;53.592;10.044;2023-02-02T09:04:15;9.53;;;3.50;;
353;SDS011;165;53.592;10.044;2023-02-02T09:06:41;15.97;;;4.57;;
353;SDS011;165;53.592;10.044;2023-02-02T09:09:08;19.47;;;4.30;;
353;SDS011;165;53.592;10.044;2023-02-02T09:11:35;17.53;;;5.03;;
353;SDS011;165;53.592;10.044;2023-02-02T09:14:01;14.40;;;3.60;;
353;SDS011;165;53.592;10.044;2023-02-02T09:16:27;15.20;;;3.90;;
353;SDS011;165;53.592;10.044;2023-02-02T09:18:56;13.53;;;3.70;;
353;SDS011;165;53.592;10.044;2023-02-02T09:21:22;11.10;;;2.80;;
353;SDS011;165;53.592;10.044;2023-02-02T09:23:49;14.20;;;4.40;;
353;SDS011;165;53.592;10.044;2023-02-02T09:26:19;13.30;;;3.67;;
353;SDS011;165;53.592;10.044;2023-02-02T09:28:57;13.67;;;3.67;;
353;SDS011;165;53.592;10.044;2023-02-02T09:31:24;6.83;;;3.60;;
353;SDS011;165;53.592;10.044;2023-02-02T09:33:50;17.90;;;6.33;;
353;SDS011;165;53.592;10.044;2023-02-02T09:36:25;12.10;;;7.27;;
353;SDS011;165;53.592;10.044;2023-02-02T09:38:50;6.63;;;6.23;;
353;SDS011;165;53.592;10.044;2023-02-02T09:41:44;10.43;;;9.33;;
353;SDS011;165;53.592;10.044;2023-02-02T09:44:36;13.50;;;10.50;;
353;SDS011;165;53.592;10.044;2023-02-02T09:47:19;9.23;;;8.73;;
353;SDS011;165;53.592;10.044;2023-02-02T09:49:57;10.00;;;9.50;;
353;SDS011;165;53.592;10.044;2023-02-02T09:52:32;12.30;;;10.70;;
353;SDS011;165;53.592;10.044;2023-02-02T09:55:11;14.47;;;12.80;;
353;SDS011;165;53.592;10.044;2023-02-02T09:57:44;10.63;;;10.03;;
353;SDS011;165;53.592;10.044;2023-02-02T10:00:52;10.60;;;10.00;;
353;SDS011;165;53.592;10.044;2023-02-02T10:06:27;13.73;;;10.80;;
353;SDS011;165;53.592;10.044;2023-02-02T10:09:00;12.13;;;10.50;;
353;SDS011;165;53.592;10.044;2023-02-02T10:11:52;11.30;;;10.70;;
353;SDS011;165;53.592;10.044;2023-02-02T10:14:39;11.60;;;11.00;;
353;SDS011;165;53.592;10.044;2023-02-02T10:20:21;18.27;;;12.17;;
353;SDS011;165;53.592;10.044;2023-02-02T10:26:09;10.97;;;10.37;;
353;SDS011;165;53.592;10.044;2023-02-02T10:34:43;12.20;;;11.60;;
353;SDS011;165;53.592;10.044;2023-02-02T10:37:33;12.50;;;11.87;;
353;SDS011;165;53.592;10.044;2023-02-02T10:43:04;16.67;;;13.03;;
353;SDS011;165;53.592;10.044;2023-02-02T10:45:42;14.17;;;12.23;;
353;SDS011;165;53.592;10.044;2023-02-02T10:48:12;11.83;;;11.23;;
353;SDS011;165;53.592;10.044;2023-02-02T10:50:40;13.07;;;12.37;;
353;SDS011;165;53.592;10.044;2023-02-02T10:53:09;13.10;;;12.40;;
353;SDS011;165;53.592;10.044;2023-02-02T10:55:40;12.57;;;11.93;;
353;SDS011;165;53.592;10.044;2023-02-02T10:58:55;13.87;;;13.17;;
353;SDS011;165;53.592;10.044;2023-02-02T11:01:29;13.10;;;12.40;;
353;SDS011;165;53.592;10.044;2023-02-02T11:03:55;14.60;;;12.67;;
353;SDS011;165;53.592;10.044;2023-02-02T11:06:20;14.33;;;13.63;;
353;SDS011;165;53.592;10.044;2023-02-02T11:08:47;13.60;;;12.90;;
353;SDS011;165;53.592;10.044;2023-02-02T11:11:21;13.03;;;12.33;;
353;SDS011;165;53.592;10.044;2023-02-02T11:13:54;13.33;;;12.63;;
353;SDS011;165;53.592;10.044;2023-02-02T11:16:26;12.33;;;11.73;;
353;SDS011;165;53.592;10.044;2023-02-02T11:18:53;12.93;;;11.23;;
353;SDS011;165;53.592;10.044;2023-02-02T11:23:54;15.80;;;11.63;;
353;SDS011;165;53.592;10.044;2023-02-02T11:29:28;12.80;;;12.10;;
353;SDS011;165;53.592;10.044;2023-02-02T11:31:56;12.77;;;11.10;;
353;SDS011;165;53.592;10.044;2023-02-02T11:34:23;20.73;;;14.20;;
353;SDS011;165;53.592;10.044;2023-02-02T11:39:39;13.00;;;12.30;;
353;SDS011;165;53.592;10.044;2023-02-02T11:42:07;12.63;;;11.97;;
353;SDS011;165;53.592;10.044;2023-02-02T11:44:47;13.90;;;12.50;;
353;SDS011;165;53.592;10.044;2023-02-02T11:47:25;11.70;;;10.90;;
353;SDS011;165;53.592;10.044;2023-02-02T11:49:52;10.90;;;10.00;;
353;SDS011;165;53.592;10.044;2023-02-02T11:52:20;13.47;;;10.97;;
353;SDS011;165;53.592;10.044;2023-02-02T11:54:50;11.47;;;10.80;;
353;SDS011;165;53.592;10.044;2023-02-02T11:57:20;13.10;;;10.70;;
353;SDS011;165;53.592;10.044;2023-02-02T11:59:47;11.20;;;10.60;;
353;SDS011;165;53.592;10.044;2023-02-02T12:02:30;11.17;;;10.40;;
353;SDS011;165;53.592;10.044;2023-02-02T12:07:33;11.70;;;11.10;;
353;SDS011;165;53.592;10.044;2023-02-02T12:10:00;14.27;;;11.63;;
353;SDS011;165;53.592;10.044;2023-02-02T12:15:24;15.70;;;11.73;;
353;SDS011;165;53.592;10.044;2023-02-02T12:21:02;10.57;;;10.00;;
353;SDS011;165;53.592;10.044;2023-02-02T12:26:41;11.10;;;10.50;;
353;SDS011;165;53.592;10.044;2023-02-02T12:29:16;12.70;;;10.47;;
353;SDS011;165;53.592;10.044;2023-02-02T12:32:14;11.07;;;10.47;;
353;SDS011;165;53.592;10.044;2023-02-02T12:45:56;11.37;;;10.77;;
353;SDS011;165;53.592;10.044;2023-02-02T12:48:49;14.50;;;11.37;;
353;SDS011;165;53.592;10.044;2023-02-02T12:51:53;12.37;;;11.77;;
353;SDS011;165;53.592;10.044;2023-02-02T13:00:05;11.90;;;11.30;;
353;SDS011;165;53.592;10.044;2023-02-02T13:02:52;11.93;;;11.33;;
353;SDS011;165;53.592;10.044;2023-02-02T13:05:28;12.77;;;12.07;;
353;SDS011;165;53.592;10.044;2023-02-02T13:07:59;11.90;;;11.30;;
353;SDS011;165;53.592;10.044;2023-02-02T13:10:45;12.20;;;11.60;;
353;SDS011;165;53.592;10.044;2023-02-02T13:13:17;11.60;;;11.00;;
353;SDS011;165;53.592;10.044;2023-02-02T13:15:48;11.10;;;10.50;;
353;SDS011;165;53.592;10.044;2023-02-02T13:18:19;11.47;;;10.87;;
353;SDS011;165;53.592;10.044;2023-02-02T13:21:04;11.90;;;11.30;;
353;SDS011;165;53.592;10.044;2023-02-02T13:23:39;12.47;;;11.87;;
353;SDS011;165;53.592;10.044;2023-02-02T13:26:19;12.23;;;11.17;;
353;SDS011;165;53.592;10.044;2023-02-02T13:28:49;12.23;;;11.63;;
353;SDS011;165;53.592;10.044;2023-02-02T13:31:39;11.43;;;10.83;;
353;SDS011;165;53.592;10.044;2023-02-02T13:36:54;11.53;;;10.83;;
353;SDS011;165;53.592;10.044;2023-02-02T13:39:27;11.23;;;10.63;;
353;SDS011;165;53.592;10.044;2023-02-02T13:42:01;11.23;;;10.63;;
353;SDS011;165;53.592;10.044;2023-02-02T13:44:37;11.33;;;10.70;;
353;SDS011;165;53.592;10.044;2023-02-02T13:47:09;11.67;;;11.07;;
353;SDS011;165;53.592;10.044;2023-02-02T13:49:43;12.13;;;11.53;;
353;SDS011;165;53.592;10.044;2023-02-02T13:52:33;10.97;;;10.37;;
353;SDS011;165;53.592;10.044;2023-02-02T14:00:42;11.57;;;10.37;;
353;SDS011;165;53.592;10.044;2023-02-02T14:06:04;11.60;;;11.00;;
353;SDS011;165;53.592;10.044;2023-02-02T14:09:00;12.77;;;11.17;;
353;SDS011;165;53.592;10.044;2023-02-02T14:11:32;10.87;;;10.27;;
353;SDS011;165;53.592;10.044;2023-02-02T14:14:15;10.33;;;9.83;;
353;SDS011;165;53.592;10.044;2023-02-02T14:16:44;10.93;;;10.30;;
353;SDS011;165;53.592;10.044;2023-02-02T14:19:45;11.63;;;11.03;;
353;SDS011;165;53.592;10.044;2023-02-02T14:22:03;12.80;;;11.40;;
353;SDS011;165;53.592;10.044;2023-02-02T14:24:46;10.23;;;9.73;;
353;SDS011;165;53.592;10.044;2023-02-02T14:34:51;12.40;;;11.80;;
353;SDS011;165;53.592;10.044;2023-02-02T14:37:28;10.40;;;9.90;;
353;SDS011;165;53.592;10.044;2023-02-02T14:45:13;10.73;;;10.13;;
353;SDS011;165;53.592;10.044;2023-02-02T14:47:50;14.30;;;13.60;;
353;SDS011;165;53.592;10.044;2023-02-02T14:53:19;10.83;;;10.23;;
353;SDS011;165;53.592;10.044;2023-02-02T14:56:07;11.45;;;10.85;;
353;SDS011;165;53.592;10.044;2023-02-02T14:58:45;10.80;;;10.20;;
353;SDS011;165;53.592;10.044;2023-02-02T15:06:49;10.20;;;9.70;;
353;SDS011;165;53.592;10.044;2023-02-02T15:14:25;12.90;;;10.43;;
353;SDS011;165;53.592;10.044;2023-02-02T15:20:12;9.93;;;9.43;;
353;SDS011;165;53.592;10.044;2023-02-02T15:25:30;11.43;;;10.83;;
353;SDS011;165;53.592;10.044;2023-02-02T15:28:12;9.80;;;9.30;;
353;SDS011;165;53.592;10.044;2023-02-02T15:30:49;9.50;;;9.00;;
353;SDS011;165;53.592;10.044;2023-02-02T15:33:28;8.30;;;7.90;;
353;SDS011;165;53.592;10.044;2023-02-02T15:36:03;9.83;;;7.43;;
353;SDS011;165;53.592;10.044;2023-02-02T15:38:34;8.83;;;8.10;;
353;SDS011;165;53.592;10.044;2023-02-02T15:41:15;7.83;;;7.43;;
353;SDS011;165;53.592;10.044;2023-02-02T15:44:18;7.77;;;7.37;;
353;SDS011;165;53.592;10.044;2023-02-02T15:46:45;9.87;;;8.00;;
353;SDS011;165;53.592;10.044;2023-02-02T15:51:50;13.47;;;10.43;;
353;SDS011;165;53.592;10.044;2023-02-02T15:56:50;9.30;;;7.90;;
353;SDS011;165;53.592;10.044;2023-02-02T15:59:20;8.20;;;6.77;;
353;SDS011;165;53.592;10.044;2023-02-02T16:01:47;8.80;;;7.10;;
353;SDS011;165;53.592;10.044;2023-02-02T16:04:24;9.40;;;5.97;;
353;SDS011;165;53.592;10.044;2023-02-02T16:06:58;10.83;;;6.13;;
353;SDS011;165;53.592;10.044;2023-02-02T16:09:25;10.73;;;6.77;;
353;SDS011;165;53.592;10.044;2023-02-02T16:11:57;6.30;;;5.10;;
353;SDS011;165;53.592;10.044;2023-02-02T16:14:25;5.97;;;5.13;;
353;SDS011;165;53.592;10.044;2023-02-02T16:16:58;9.50;;;5.30;;
353;SDS011;165;53.592;10.044;2023-02-02T16:19:44;5.33;;;5.10;;
353;SDS011;165;53.592;10.044;2023-02-02T16:22:21;9.53;;;4.63;;
353;SDS011;165;53.592;10.044;2023-02-02T16:24:50;9.17;;;4.67;;
353;SDS011;165;53.592;10.044;2023-02-02T16:27:19;7.50;;;5.63;;
353;SDS011;165;53.592;10.044;2023-02-02T19:44:00;17.27;;;9.70;;
353;SDS011;165;53.592;10.044;2023-02-02T19:46:42;17.43;;;12.50;;
353;SDS011;165;53.592;10.044;2023-02-02T19:49:15;15.43;;;10.87;;
353;SDS011;165;53.592;10.044;2023-02-02T19:51:54;14.30;;;7.40;;
353;SDS011;165;53.592;10.044;2023-02-02T19:54:26;13.23;;;7.30;;
353;SDS011;165;53.592;10.044;2023-02-02T19:56:53;15.17;;;8.90;;
353;SDS011;165;53.592;10.044;2023-02-02T19:59:21;11.27;;;7.23;;
353;SDS011;165;53.592;10.044;2023-02-02T20:01:49;13.93;;;7.53;;
353;SDS011;165;53.592;10.044;2023-02-02T20:04:23;12.13;;;7.60;;
353;SDS011;165;53.592;10.044;2023-02-02T20:06:53;13.20;;;6.20;;
353;SDS011;165;53.592;10.044;2023-02-02T20:09:20;12.50;;;6.03;;
353;SDS011;165;53.592;10.044;2023-02-02T20:11:53;14.67;;;7.80;;
353;SDS011;165;53.592;10.044;2023-02-02T20:14:26;14.00;;;6.50;;
353;SDS011;165;53.592;10.044;2023-02-02T20:16:58;13.17;;;6.97;;
353;SDS011;165;53.592;10.044;2023-02-02T20:19:31;10.83;;;5.90;;
353;SDS011;165;53.592;10.044;2023-02-02T20:21:58;10.93;;;7.20;;
353;SDS011;165;53.592;10.044;2023-02-02T20:24:25;14.80;;;8.90;;
353;SDS011;165;53.592;10.044;2023-02-02T20:26:59;12.93;;;7.43;;
353;SDS011;165;53.592;10.044;2023-02-02T20:29:42;11.13;;;7.50;;
353;SDS011;165;53.592;10.044;2023-02-02T20:32:17;17.23;;;6.43;;
353;SDS011;165;53.592;10.044;2023-02-02T20:34:51;16.30;;;8.43;;
353;SDS011;165;53.592;10.044;2023-02-02T20:37:20;26.83;;;13.10;;
353;SDS011;165;53.592;10.044;2023-02-02T20:40:20;11.43;;;7.03;;
353;SDS011;165;53.592;10.044;2023-02-02T20:42:50;13.90;;;6.70;;
353;SDS011;165;53.592;10.044;2023-02-02T20:45:17;11.00;;;6.60;;
353;SDS011;165;53.592;10.044;2023-02-02T20:47:43;12.30;;;6.43;;
353;SDS011;165;53.592;10.044;2023-02-02T20:50:09;9.60;;;5.90;;
353;SDS011;165;53.592;10.044;2023-02-02T20:52:36;13.17;;;5.13;;
353;SDS011;165;53.592;10.044;2023-02-02T20:55:02;11.30;;;6.00;;
353;SDS011;165;53.592;10.044;2023-02-02T20:57:27;13.70;;;5.93;;
353;SDS011;165;53.592;10.044;2023-02-02T20:59:53;9.43;;;5.10;;
353;SDS011;165;53.592;10.044;2023-02-02T21:02:18;13.97;;;5.30;;
353;SDS011;165;53.592;10.044;2023-02-02T21:04:45;10.87;;;6.30;;